createdAt,value
2019-01-31T00:02:10.716Z,101372.36
2019-01-31T00:05:01.107Z,101381.33
2019-01-31T00:07:37.013Z,101374.78
2019-01-31T00:10:19.175Z,101373.41
2019-01-31T00:13:11.199Z,101378.70
2019-01-31T00:16:01.171Z,101372.87
2019-01-31T00:18:45.782Z,101367.91
2019-01-31T00:21:42.545Z,101370.85
2019-01-31T00:24:20.487Z,101369.67
2019-01-31T00:27:01.623Z,101362.48
2019-01-31T00:29:40.372Z,101374.84
2019-01-31T00:32:15.573Z,101389.64
2019-01-31T00:34:56.703Z,101384.14
2019-01-31T00:37:38.506Z,101380.02
2019-01-31T00:40:16.746Z,101376.02
2019-01-31T00:42:52.010Z,101371.91
2019-01-31T00:45:36.217Z,101377.39
2019-01-31T00:48:27.153Z,101367.98
2019-01-31T00:51:16.741Z,101365.75
2019-01-31T00:54:05.923Z,101359.41
2019-01-31T00:56:47.242Z,101366.28
2019-01-31T00:59:39.095Z,101361.63
2019-01-31T01:02:17.235Z,101361.63
2019-01-31T01:04:49.323Z,101361.63
2019-01-31T01:07:24.814Z,101353.91
2019-01-31T01:10:02.770Z,101351.16
2019-01-31T01:12:52.449Z,101348.94
2019-01-31T01:15:30.446Z,101342.06
2019-01-31T01:18:09.349Z,101335.20
2019-01-31T01:20:42.037Z,101325.38
2019-01-31T01:23:26.053Z,101309.94
2019-01-31T01:25:58.771Z,101316.61
2019-01-31T01:28:40.324Z,101307.52
2019-01-31T01:31:24.612Z,101307.52
2019-01-31T01:34:08.759Z,101310.99
2019-01-31T01:36:43.891Z,101314.78
2019-01-31T01:39:19.681Z,101315.31
2019-01-31T01:41:55.114Z,101311.19
2019-01-31T01:44:31.331Z,101313.41
2019-01-31T01:47:24.955Z,101313.09
2019-01-31T01:50:08.763Z,101300.72
2019-01-31T01:52:53.206Z,101300.72
2019-01-31T01:55:47.036Z,101304.52
2019-01-31T01:58:19.350Z,101307.27
2019-01-31T02:01:03.723Z,101305.37
2019-01-31T02:03:45.362Z,101303.47
2019-01-31T02:06:35.370Z,101296.28
2019-01-31T02:09:40.859Z,101294.91
2019-01-31T02:12:13.138Z,101290.78
2019-01-31T02:15:05.542Z,101297.13
2019-01-31T02:17:49.702Z,101295.75
2019-01-31T02:20:31.434Z,101295.75
2019-01-31T02:23:03.882Z,101288.36
2019-01-31T02:25:39.005Z,101295.03
2019-01-31T02:28:26.284Z,101282.66
2019-01-31T02:31:04.313Z,101286.59
2019-01-31T02:33:42.403Z,101289.66
2019-01-31T02:36:18.308Z,101289.98
2019-01-31T02:39:11.796Z,101290.83
2019-01-31T02:41:49.952Z,101287.56
2019-01-31T02:44:40.106Z,101299.73
2019-01-31T02:47:15.490Z,101293.70
2019-01-31T02:49:56.887Z,101292.33
2019-01-31T02:52:45.071Z,101287.69
2019-01-31T02:55:40.263Z,101286.44
2019-01-31T02:58:24.868Z,101282.31
2019-01-31T03:01:03.679Z,101279.89
2019-01-31T03:03:54.321Z,101278.52
2019-01-31T03:06:59.940Z,101282.95
2019-01-31T03:09:41.427Z,101274.28
2019-01-31T03:12:17.255Z,101266.47
2019-01-31T03:14:50.302Z,101268.37
2019-01-31T03:17:43.139Z,101262.88
2019-01-31T03:20:21.223Z,101266.14
2019-01-31T03:23:02.210Z,101246.38
2019-01-31T03:25:37.903Z,101254.10
2019-01-31T03:28:29.746Z,101243.51
2019-01-31T03:31:05.689Z,101242.46
2019-01-31T03:33:56.617Z,101232.52
2019-01-31T03:36:32.153Z,101232.59
2019-01-31T03:48:32.835Z,101208.72
2019-01-31T05:11:46.590Z,101118.41
2019-01-31T05:14:22.767Z,101115.13
2019-01-31T05:16:57.011Z,101111.86
2019-01-31T05:19:27.062Z,101094.44
2019-01-31T05:21:57.080Z,101110.72
2019-01-31T05:24:27.604Z,101118.64
2019-01-31T05:26:58.775Z,101103.97
2019-01-31T05:29:37.577Z,101113.06
2019-01-31T05:32:09.560Z,101105.75
2019-01-31T05:34:40.736Z,101113.88
2019-01-31T05:48:51.296Z,101104.14
2019-01-31T05:51:21.545Z,101097.67
2019-01-31T05:53:54.217Z,101097.36
2019-01-31T05:56:26.167Z,101101.16
2019-01-31T06:07:41.721Z,101095.66
2019-01-31T06:10:15.626Z,101094.28
2019-01-31T06:27:22.836Z,101086.69
2019-01-31T06:38:54.029Z,101097.59
2019-01-31T06:44:08.872Z,101094.84
2019-01-31T07:16:42.758Z,101100.02
2019-01-31T07:19:13.029Z,101106.56
2019-01-31T08:10:51.596Z,101156.22
2019-01-31T08:27:53.549Z,101165.35
2019-01-31T08:33:50.098Z,101166.56
2019-01-31T08:36:28.840Z,101171.77
2019-01-31T08:38:59.329Z,101146.70
2019-01-31T08:41:32.403Z,101146.41
2019-01-31T08:44:08.845Z,101143.58
2019-01-31T08:46:38.751Z,101146.23
2019-01-31T08:49:09.263Z,101146.32
2019-01-31T08:51:39.410Z,101151.20
2019-01-31T08:54:09.825Z,101165.83
2019-01-31T08:56:38.857Z,101162.17
2019-01-31T08:59:08.445Z,101154.75
2019-01-31T09:01:37.818Z,101160.16
2019-01-31T09:04:06.961Z,101167.27
2019-01-31T09:06:39.466Z,101171.91
2019-01-31T09:12:15.497Z,101180.08
2019-01-31T09:14:40.781Z,101181.47
2019-01-31T09:17:13.423Z,101182.94
2019-01-31T09:19:42.931Z,101172.97
2019-01-31T09:22:15.760Z,101174.05
2019-01-31T09:24:57.208Z,101175.81
2019-01-31T09:27:39.072Z,101177.62
2019-01-31T09:30:19.474Z,101182.45
2019-01-31T09:33:06.607Z,101181.00
2019-01-31T09:35:38.821Z,101165.37
2019-01-31T09:38:23.042Z,101161.50
2019-01-31T09:41:01.250Z,101157.98
2019-01-31T09:43:33.308Z,101161.95
2019-01-31T09:46:05.494Z,101165.00
2019-01-31T09:48:49.752Z,101165.61
2019-01-31T09:51:41.837Z,101166.94
2019-01-31T09:54:14.309Z,101152.85
2019-01-31T09:56:55.404Z,101152.91
2019-01-31T09:59:33.637Z,101149.30
2019-01-31T10:02:17.868Z,101154.06
2019-01-31T10:05:06.669Z,101146.08
2019-01-31T10:07:54.039Z,101143.90
2019-01-31T10:10:38.304Z,101128.97
2019-01-31T10:13:38.595Z,101144.11
2019-01-31T10:16:36.637Z,101135.54
2019-01-31T10:19:38.952Z,101131.23
2019-01-31T10:22:29.403Z,101134.38
2019-01-31T10:25:04.488Z,101123.55
2019-01-31T10:27:43.030Z,101122.03
2019-01-31T10:30:21.505Z,101119.72
2019-01-31T10:33:05.965Z,101124.48
2019-01-31T10:35:37.993Z,101139.47
2019-01-31T10:38:12.917Z,101134.07
2019-01-31T10:40:59.866Z,101137.58
2019-01-31T10:43:46.584Z,101152.61
2019-01-31T10:46:42.623Z,101150.78
2019-01-31T10:49:24.332Z,101137.69
2019-01-31T10:52:09.324Z,101144.98
2019-01-31T10:54:52.968Z,101156.63
2019-01-31T10:57:25.023Z,101165.76
2019-01-31T11:00:07.405Z,101149.03
2019-01-31T11:02:55.144Z,101146.75
2019-01-31T11:05:43.650Z,101141.83
2019-01-31T11:08:21.568Z,101137.27
2019-01-31T11:10:56.218Z,101139.63
2019-01-31T11:13:53.852Z,101140.02
2019-01-31T11:16:35.022Z,101142.86
2019-01-31T11:19:13.304Z,101144.38
2019-01-31T11:22:00.944Z,101150.01
2019-01-31T11:24:55.793Z,101158.77
2019-01-31T11:27:40.244Z,101135.56
2019-01-31T11:30:44.801Z,101133.87
2019-01-31T11:33:36.612Z,101139.58
2019-01-31T11:36:12.384Z,101132.77
2019-01-31T11:39:00.185Z,101128.02
2019-01-31T11:41:41.408Z,101142.58
2019-01-31T11:44:34.702Z,101119.87
2019-01-31T11:47:15.549Z,101129.20
2019-01-31T11:49:51.652Z,101118.15
2019-01-31T11:52:39.192Z,101118.73
2019-01-31T11:55:14.216Z,101125.02
2019-01-31T11:57:55.053Z,101128.84
2019-01-31T12:00:26.408Z,101108.14
2019-01-31T12:02:56.043Z,101117.04
2019-01-31T12:05:25.866Z,101104.08
2019-01-31T12:07:55.436Z,101101.31
2019-01-31T12:10:25.077Z,101096.02
2019-01-31T12:12:54.874Z,101096.00
2019-01-31T12:15:25.200Z,101094.55
2019-01-31T12:17:54.934Z,101101.84
2019-01-31T12:20:24.703Z,101101.60
2019-01-31T12:22:54.337Z,101090.30
2019-01-31T12:25:24.172Z,101092.95
2019-01-31T12:27:53.986Z,101075.80
2019-01-31T12:30:25.949Z,101077.63
2019-01-31T12:32:55.641Z,101070.05
2019-01-31T12:35:28.386Z,101066.61
2019-01-31T12:37:58.152Z,101066.46
2019-01-31T12:40:27.944Z,101067.21
2019-01-31T12:42:57.763Z,101067.00
2019-01-31T12:45:27.671Z,101059.00
2019-01-31T12:47:57.470Z,101052.45
2019-01-31T12:50:27.207Z,101055.45
2019-01-31T12:52:56.911Z,101055.30
2019-01-31T12:55:26.700Z,101040.59
2019-01-31T12:57:56.811Z,101038.37
2019-01-31T13:00:27.942Z,101033.02
2019-01-31T13:02:57.566Z,101025.88
2019-01-31T13:05:27.484Z,101025.03
2019-01-31T13:07:56.883Z,101031.04
2019-01-31T13:10:26.623Z,101025.98
2019-01-31T13:12:56.696Z,101012.20
2019-01-31T13:15:29.286Z,101009.77
2019-01-31T13:17:58.909Z,101003.98
2019-01-31T13:20:28.817Z,101006.98
2019-01-31T13:22:58.439Z,101005.61
2019-01-31T13:25:28.581Z,100982.87
2019-01-31T13:27:58.681Z,100988.09
2019-01-31T13:30:28.426Z,100981.73
2019-01-31T13:32:58.283Z,100981.03
2019-01-31T13:35:28.107Z,100983.09
2019-01-31T13:37:57.921Z,100972.87
2019-01-31T13:40:27.580Z,100969.91
2019-01-31T13:42:57.450Z,100980.66
2019-01-31T13:45:29.687Z,100963.44
2019-01-31T13:48:01.692Z,100955.58
2019-01-31T13:50:31.330Z,100952.44
2019-01-31T13:53:01.234Z,100953.35
2019-01-31T13:55:32.278Z,100952.71
2019-01-31T13:58:02.088Z,100951.63
2019-01-31T14:00:32.159Z,100943.97
2019-01-31T14:03:01.873Z,100943.97
2019-01-31T14:05:31.773Z,100937.12
2019-01-31T14:08:01.271Z,100925.88
2019-01-31T14:10:31.030Z,100923.42
2019-01-31T14:13:01.292Z,100914.31
2019-01-31T14:15:34.197Z,100922.67
2019-01-31T14:18:04.230Z,100920.98
2019-01-31T14:20:34.400Z,100896.69
2019-01-31T14:23:04.234Z,100896.45
2019-01-31T14:25:34.062Z,100895.91
2019-01-31T14:28:03.722Z,100886.70
2019-01-31T14:30:39.209Z,100894.09
2019-01-31T14:33:19.940Z,100880.86
2019-01-31T14:35:49.856Z,100880.64
2019-01-31T14:38:19.453Z,100877.45
2019-01-31T14:40:49.008Z,100870.30
2019-01-31T14:43:18.909Z,100857.29
2019-01-31T14:45:47.844Z,100855.50
2019-01-31T14:48:16.750Z,100856.92
2019-01-31T14:50:46.531Z,100861.13
2019-01-31T14:53:16.269Z,100851.85
2019-01-31T14:55:45.314Z,100863.52
2019-01-31T14:58:14.356Z,100849.53
2019-01-31T15:00:44.263Z,100839.38
2019-01-31T15:03:13.561Z,100834.77
2019-01-31T15:05:42.746Z,100820.50
2019-01-31T15:08:11.789Z,100821.77
2019-01-31T15:10:40.766Z,100815.38
2019-01-31T15:13:10.184Z,100809.30
2019-01-31T15:15:39.185Z,100799.57
2019-01-31T15:18:08.121Z,100797.62
2019-01-31T15:20:42.337Z,100800.16
2019-01-31T15:23:13.572Z,100803.25
2019-01-31T15:25:42.600Z,100806.34
2019-01-31T15:28:11.794Z,100800.02
2019-01-31T15:30:41.043Z,100805.52
2019-01-31T15:33:12.470Z,100796.08
2019-01-31T15:35:42.006Z,100795.00
2019-01-31T15:38:11.473Z,100791.98
2019-01-31T15:40:42.923Z,100796.17
2019-01-31T15:43:12.151Z,100793.49
2019-01-31T15:45:41.079Z,100787.84
2019-01-31T15:48:11.028Z,100775.47
2019-01-31T15:50:40.837Z,100782.77
2019-01-31T15:53:10.102Z,100783.18
2019-01-31T15:55:39.905Z,100785.64
2019-01-31T15:58:09.847Z,100782.16
2019-01-31T16:00:43.197Z,100774.15
2019-01-31T16:03:15.515Z,100778.88
2019-01-31T16:05:45.196Z,100787.78
2019-01-31T16:08:15.126Z,100796.53
2019-01-31T16:10:45.051Z,100793.64
2019-01-31T16:13:14.889Z,100799.28
2019-01-31T16:15:44.854Z,100802.48
2019-01-31T16:18:14.424Z,100795.31
2019-01-31T16:20:44.336Z,100800.92
2019-01-31T16:23:13.819Z,100807.91
2019-01-31T16:25:47.488Z,100806.79
2019-01-31T16:28:15.776Z,100802.00
2019-01-31T16:30:45.372Z,100798.73
2019-01-31T16:33:15.173Z,100807.38
2019-01-31T16:35:44.921Z,100803.56
2019-01-31T16:38:14.680Z,100805.77
2019-01-31T16:40:44.707Z,100797.19
2019-01-31T16:43:14.798Z,100801.42
2019-01-31T16:45:46.262Z,100797.09
2019-01-31T16:48:16.206Z,100789.58
2019-01-31T16:50:46.059Z,100800.34
2019-01-31T16:53:15.739Z,100789.77
2019-01-31T16:55:45.686Z,100788.69
2019-01-31T16:58:15.005Z,100777.50
2019-01-31T17:00:44.150Z,100773.05
2019-01-31T17:03:14.164Z,100766.16
2019-01-31T17:05:42.945Z,100775.44
2019-01-31T17:08:11.860Z,100780.19
2019-01-31T17:10:40.768Z,100783.64
2019-01-31T17:13:09.685Z,100783.45
2019-01-31T17:15:38.580Z,100771.49
2019-01-31T17:18:11.244Z,100765.09
2019-01-31T17:20:42.155Z,100769.30
2019-01-31T17:23:11.035Z,100774.28
2019-01-31T17:25:42.107Z,100774.44
2019-01-31T17:28:13.100Z,100769.07
2019-01-31T17:30:41.985Z,100770.03
2019-01-31T17:33:11.091Z,100758.92
2019-01-31T17:35:39.929Z,100763.06
2019-01-31T17:38:09.002Z,100761.25
2019-01-31T17:40:39.483Z,100754.66
2019-01-31T17:43:08.965Z,100750.55
2019-01-31T17:45:37.755Z,100752.55
2019-01-31T17:48:07.876Z,100752.92
2019-01-31T17:50:36.696Z,100740.00
2019-01-31T17:53:05.543Z,100737.00
2019-01-31T17:55:34.551Z,100745.64
2019-01-31T17:58:03.460Z,100741.38
2019-01-31T18:00:54.938Z,100742.28
2019-01-31T18:03:27.192Z,100746.34
2019-01-31T18:05:56.960Z,100732.70
2019-01-31T18:08:26.832Z,100728.79
2019-01-31T18:10:56.289Z,100726.52
2019-01-31T18:13:26.018Z,100722.53
2019-01-31T18:15:55.753Z,100715.47
2019-01-31T18:18:24.663Z,100725.56
2019-01-31T18:20:53.463Z,100714.69
2019-01-31T18:23:23.010Z,100719.52
2019-01-31T18:25:52.626Z,100722.16
2019-01-31T18:28:22.109Z,100723.68
2019-01-31T18:30:53.323Z,100721.06
2019-01-31T18:33:22.432Z,100729.77
2019-01-31T18:35:51.404Z,100730.53
2019-01-31T18:38:20.381Z,100735.73
2019-01-31T18:40:49.448Z,100726.66
2019-01-31T18:43:19.582Z,100717.83
2019-01-31T18:45:53.570Z,100717.23
2019-01-31T18:48:19.722Z,100721.91
2019-01-31T18:50:48.589Z,100714.27
2019-01-31T18:53:17.619Z,100710.41
2019-01-31T18:55:46.553Z,100705.44
2019-01-31T18:58:15.572Z,100712.63
2019-01-31T19:00:46.616Z,100720.67
2019-01-31T19:03:15.373Z,100715.38
2019-01-31T19:05:44.487Z,100712.09
2019-01-31T19:08:13.551Z,100714.84
2019-01-31T19:10:43.864Z,100706.90
2019-01-31T19:13:13.065Z,100704.37
2019-01-31T19:15:42.045Z,100698.86
2019-01-31T19:18:10.867Z,100701.61
2019-01-31T19:20:41.287Z,100704.67
2019-01-31T19:23:11.144Z,100700.86
2019-01-31T19:25:40.271Z,100703.61
2019-01-31T19:28:12.994Z,100704.98
2019-01-31T19:30:43.006Z,100690.98
2019-01-31T19:45:51.128Z,100689.30
2019-01-31T19:48:21.164Z,100682.73
2019-01-31T19:50:51.082Z,100690.23
2019-01-31T19:53:20.733Z,100694.05
2019-01-31T19:55:50.535Z,100697.56
2019-01-31T19:58:20.384Z,100689.47
2019-01-31T20:00:50.478Z,100695.97
2019-01-31T20:03:20.341Z,100692.59
2019-01-31T20:05:50.189Z,100674.61
2019-01-31T20:08:19.974Z,100673.45
2019-01-31T20:10:49.959Z,100678.65
2019-01-31T20:13:19.759Z,100672.22
2019-01-31T20:15:49.760Z,100674.34
2019-01-31T20:18:19.695Z,100667.47
2019-01-31T20:20:49.546Z,100668.31
2019-01-31T20:23:19.475Z,100659.82
2019-01-31T20:25:49.508Z,100662.80
2019-01-31T20:28:20.639Z,100661.42
2019-01-31T20:30:50.216Z,100667.47
2019-01-31T20:33:21.574Z,100656.67
2019-01-31T20:35:53.480Z,100668.00
2019-01-31T20:38:23.271Z,100645.88
2019-01-31T20:40:53.239Z,100648.64
2019-01-31T20:43:23.421Z,100646.45
2019-01-31T20:45:53.491Z,100638.72
2019-01-31T20:48:23.614Z,100639.26
2019-01-31T20:50:53.593Z,100636.51
2019-01-31T20:53:23.673Z,100635.97
2019-01-31T20:56:00.194Z,100640.10
